Time;durP1;ratioP1;P1;durP2;ratioP2;P2;SDS_P1;SDS_P2;PMS_P1;PMS_P2;Temp;Humidity;BMP_temperature;BMP_pressure;BME280_temperature;BME280_humidity;BME280_pressure;Samples;Min_cycle;Max_cycle;Signal;HPM_P1;HPM_P2
2022/06/13 00:01:32;;;;;;;20.45;6.18;;;13.70;99.90;;;;;;5017343;28;20598;-85
2022/06/13 00:03:58;;;;;;;17.10;5.85;;;13.80;99.90;;;;;;5000890;28;20080;-84
2022/06/13 00:06:23;;;;;;;14.38;5.63;;;13.70;99.90;;;;;;5000877;28;20081;-84
2022/06/13 00:08:49;;;;;;;13.68;5.82;;;13.80;99.90;;;;;;4997444;28;20129;-85
2022/06/13 00:11:16;;;;;;;16.52;5.47;;;13.70;99.90;;;;;;5016349;28;20045;-85
2022/06/13 00:13:43;;;;;;;21.40;6.30;;;13.60;99.90;;;;;;5017769;28;20064;-85
2022/06/13 00:16:10;;;;;;;14.18;5.97;;;13.70;99.90;;;;;;5000835;28;20045;-85
2022/06/13 00:18:36;;;;;;;12.75;5.68;;;13.60;99.90;;;;;;5013727;28;20107;-85
2022/06/13 00:21:01;;;;;;;13.55;6.28;;;13.60;99.90;;;;;;5029232;28;20121;-85
2022/06/13 00:23:27;;;;;;;16.15;6.43;;;13.50;99.90;;;;;;5000507;28;20041;-85
2022/06/13 00:25:53;;;;;;;11.45;5.93;;;13.50;99.90;;;;;;4987563;28;20077;-84
2022/06/13 00:28:18;;;;;;;17.50;6.53;;;13.40;99.90;;;;;;5033576;28;20049;-85
2022/06/13 00:30:44;;;;;;;12.30;5.75;;;13.40;99.90;;;;;;5033608;28;20044;-84
2022/06/13 00:33:10;;;;;;;10.57;5.53;;;13.40;99.90;;;;;;5017063;28;20409;-84
2022/06/13 00:35:35;;;;;;;14.73;6.25;;;13.30;99.90;;;;;;5016458;28;20485;-84
2022/06/13 00:38:01;;;;;;;19.40;6.38;;;13.30;99.90;;;;;;5000312;28;20533;-84
2022/06/13 00:40:29;;;;;;;12.32;5.60;;;13.40;99.90;;;;;;4999910;28;20048;-84
2022/06/13 00:42:55;;;;;;;20.90;7.22;;;13.30;99.90;;;;;;5031874;28;20383;-89
2022/06/13 00:45:25;;;;;;;22.90;7.38;;;13.30;99.90;;;;;;5016736;28;20052;-86
2022/06/13 00:47:53;;;;;;;15.43;6.45;;;13.30;99.90;;;;;;5016238;28;20041;-85
2022/06/13 00:50:25;;;;;;;17.40;6.65;;;13.40;99.90;;;;;;4999582;28;20069;-85
2022/06/13 00:53:18;;;;;;;17.38;6.40;;;13.30;99.90;;;;;;5006638;28;20041;-85
2022/06/13 00:55:46;;;;;;;16.98;6.75;;;13.30;99.90;;;;;;5009351;28;20050;-86
2022/06/13 00:58:12;;;;;;;14.57;6.65;;;13.30;99.90;;;;;;5034293;28;20045;-86
2022/06/13 01:00:38;;;;;;;13.68;6.07;;;13.30;99.90;;;;;;4992391;28;20053;-86
2022/06/13 01:03:04;;;;;;;13.63;5.97;;;13.20;99.90;;;;;;5000990;28;20059;-86
2022/06/13 01:05:35;;;;;;;13.65;6.25;;;13.20;99.90;;;;;;5016108;28;20057;-86
2022/06/13 01:08:01;;;;;;;18.58;5.97;;;13.20;99.90;;;;;;5000090;28;20049;-85
2022/06/13 01:13:12;;;;;;;18.65;6.28;;;13.20;99.90;;;;;;4988737;28;20052;-85
2022/06/13 01:15:50;;;;;;;15.68;6.60;;;13.20;99.90;;;;;;4983596;28;20034;-85
2022/06/13 01:18:40;;;;;;;16.90;6.47;;;13.20;99.90;;;;;;5016512;28;20434;-85
2022/06/13 01:21:37;;;;;;;15.98;6.88;;;13.20;99.90;;;;;;5004724;28;20060;-86
2022/06/13 01:24:42;;;;;;;15.25;6.32;;;13.20;99.90;;;;;;4997080;28;20053;-85
2022/06/13 01:27:07;;;;;;;21.98;7.25;;;13.20;99.90;;;;;;5003466;28;20045;-85
2022/06/13 01:29:39;;;;;;;16.63;6.57;;;13.20;99.90;;;;;;5016161;28;20474;-85
2022/06/13 01:32:17;;;;;;;21.02;8.15;;;13.20;99.90;;;;;;5033460;28;20553;-86
2022/06/13 01:35:01;;;;;;;16.55;6.80;;;13.10;99.90;;;;;;5003824;28;20037;-86
2022/06/13 01:37:36;;;;;;;15.25;7.32;;;13.10;99.90;;;;;;4998899;28;20052;-89
2022/06/13 01:40:17;;;;;;;16.33;7.38;;;13.10;99.90;;;;;;4984658;28;20041;-86
2022/06/13 01:42:53;;;;;;;17.45;7.10;;;13.10;99.90;;;;;;5000548;28;20507;-85
2022/06/13 01:45:32;;;;;;;17.40;7.00;;;13.00;99.90;;;;;;5000317;28;20079;-85
2022/06/13 01:48:17;;;;;;;12.20;6.60;;;13.00;99.90;;;;;;5000283;28;20488;-85
2022/06/13 01:50:55;;;;;;;16.10;6.82;;;13.00;99.90;;;;;;4999631;28;20052;-84
2022/06/13 01:53:47;;;;;;;18.67;7.38;;;13.00;99.90;;;;;;4972184;28;20430;-85
2022/06/13 01:56:13;;;;;;;17.05;6.68;;;13.00;99.90;;;;;;5012810;28;20444;-86
2022/06/13 01:58:53;;;;;;;19.17;7.78;;;12.90;99.90;;;;;;4983091;28;20045;-84
2022/06/13 02:01:34;;;;;;;20.98;7.57;;;12.90;99.90;;;;;;5015540;28;20045;-85
2022/06/13 02:04:18;;;;;;;17.45;7.30;;;12.90;99.90;;;;;;4989348;28;20045;-86
2022/06/13 02:06:47;;;;;;;16.33;6.70;;;12.90;99.90;;;;;;5015268;28;20465;-85
2022/06/13 02:09:19;;;;;;;20.55;7.07;;;12.90;99.90;;;;;;4999472;28;20099;-85
2022/06/13 02:11:50;;;;;;;14.65;6.60;;;12.90;99.90;;;;;;4983252;28;20099;-85
2022/06/13 02:14:39;;;;;;;16.95;7.68;;;12.90;99.90;;;;;;4999950;28;20060;-85
2022/06/13 02:17:18;;;;;;;22.55;7.60;;;12.90;99.90;;;;;;5026133;28;20389;-85
2022/06/13 02:19:52;;;;;;;21.15;7.97;;;12.90;99.90;;;;;;5031612;28;20045;-85
2022/06/13 02:22:39;;;;;;;18.55;6.85;;;12.90;99.90;;;;;;5030701;28;20117;-85
2022/06/13 02:25:28;;;;;;;21.10;8.43;;;12.90;99.90;;;;;;4982464;28;20064;-83
2022/06/13 02:27:59;;;;;;;18.90;7.20;;;12.90;99.90;;;;;;5015141;28;20481;-84
2022/06/13 02:30:31;;;;;;;18.50;8.85;;;12.90;99.90;;;;;;4999685;28;20385;-84
2022/06/13 02:32:59;;;;;;;16.38;7.72;;;12.90;99.90;;;;;;5015813;28;20056;-84
2022/06/13 02:35:31;;;;;;;21.50;7.70;;;12.80;99.90;;;;;;5015592;28;20107;-83
2022/06/13 02:38:08;;;;;;;14.73;7.82;;;12.80;99.90;;;;;;5031407;28;20366;-83
2022/06/13 02:40:39;;;;;;;20.77;8.75;;;12.80;99.90;;;;;;4984125;28;20477;-84
2022/06/13 02:43:15;;;;;;;14.65;7.75;;;12.80;99.90;;;;;;4983141;28;20539;-84
2022/06/13 02:46:30;;;;;;;19.08;8.23;;;12.80;99.90;;;;;;4999807;28;20053;-84
2022/06/13 02:49:09;;;;;;;14.73;7.72;;;12.80;99.90;;;;;;5006328;28;20053;-84
2022/06/13 02:51:56;;;;;;;18.00;8.20;;;12.70;99.90;;;;;;4983247;28;20089;-84
2022/06/13 02:54:28;;;;;;;21.92;8.73;;;12.70;99.90;;;;;;4997838;28;20053;-84
2022/06/13 02:59:51;;;;;;;15.25;8.13;;;12.80;99.90;;;;;;5014260;28;20576;-84
2022/06/13 03:02:21;;;;;;;16.17;8.35;;;12.80;99.90;;;;;;5031744;28;20049;-84
2022/06/13 03:05:27;;;;;;;19.75;9.40;;;12.80;99.90;;;;;;4997533;28;20053;-85
2022/06/13 03:08:13;;;;;;;21.58;9.35;;;12.90;99.90;;;;;;5023594;28;20046;-84
2022/06/13 03:11:01;;;;;;;18.90;8.90;;;12.90;99.90;;;;;;4972539;28;20056;-85
2022/06/13 03:13:30;;;;;;;18.08;9.02;;;12.90;99.90;;;;;;4984482;28;20088;-85
2022/06/13 03:16:03;;;;;;;19.13;8.63;;;12.90;99.90;;;;;;4997881;28;20120;-85
2022/06/13 03:18:32;;;;;;;19.48;8.98;;;13.00;99.90;;;;;;4998249;28;20042;-84
2022/06/13 03:21:04;;;;;;;20.23;9.82;;;12.90;99.90;;;;;;4997893;28;20045;-85
2022/06/13 03:23:36;;;;;;;24.50;10.02;;;13.00;99.90;;;;;;4981809;28;20081;-84
2022/06/13 03:26:14;;;;;;;22.05;9.20;;;13.00;99.90;;;;;;4997824;28;20505;-84
2022/06/13 03:28:48;;;;;;;21.60;8.90;;;12.90;99.90;;;;;;4982065;28;20061;-84
2022/06/13 03:31:34;;;;;;;22.88;9.50;;;13.00;99.90;;;;;;5014431;28;20055;-84
2022/06/13 03:34:02;;;;;;;16.95;9.05;;;13.00;99.90;;;;;;4981969;28;20485;-86
2022/06/13 03:36:31;;;;;;;22.70;8.73;;;13.00;99.90;;;;;;4985802;28;20132;-86
2022/06/13 03:39:40;;;;;;;19.85;9.07;;;13.00;99.90;;;;;;5022109;28;20132;-84
2022/06/13 03:42:10;;;;;;;22.63;9.93;;;13.00;99.90;;;;;;4943853;29;20056;-86
2022/06/13 03:44:50;;;;;;;23.25;9.48;;;13.10;99.90;;;;;;4959612;29;20141;-84
2022/06/13 03:47:27;;;;;;;22.80;9.73;;;13.10;99.90;;;;;;4979610;28;20649;-85
2022/06/13 03:50:07;;;;;;;17.95;9.30;;;13.10;99.90;;;;;;5013686;28;20052;-84
2022/06/13 03:52:34;;;;;;;21.75;9.45;;;13.10;99.90;;;;;;4981718;28;20378;-84
2022/06/13 03:55:20;;;;;;;20.83;9.80;;;13.20;99.90;;;;;;5013013;28;20389;-84
2022/06/13 03:58:11;;;;;;;21.67;9.18;;;13.20;99.90;;;;;;4999327;28;20041;-85
2022/06/13 04:00:57;;;;;;;19.77;9.38;;;13.20;99.90;;;;;;4984504;28;20049;-84
2022/06/13 04:03:23;;;;;;;17.98;9.07;;;13.30;99.90;;;;;;5000932;28;20050;-84
2022/06/13 04:06:00;;;;;;;21.45;8.63;;;13.30;99.90;;;;;;4984230;28;20477;-85
2022/06/13 04:08:27;;;;;;;21.08;8.95;;;13.30;99.90;;;;;;5000792;28;20049;-84
2022/06/13 04:11:11;;;;;;;19.42;8.18;;;13.40;99.90;;;;;;5017638;28;20037;-84
2022/06/13 04:13:56;;;;;;;;;;;13.40;99.90;;;;;;5018067;28;20048;-84
2022/06/13 04:16:47;;;;;;;21.13;7.67;;;13.50;99.90;;;;;;5017543;28;20000;-84
2022/06/13 04:19:43;;;;;;;20.08;8.27;;;13.60;99.90;;;;;;4989962;28;20061;-85
2022/06/13 04:22:12;;;;;;;21.50;8.32;;;13.60;99.90;;;;;;5002398;28;20063;-84
2022/06/13 04:24:46;;;;;;;19.83;7.80;;;13.70;99.90;;;;;;5017111;28;20049;-84
2022/06/13 04:27:42;;;;;;;18.63;8.18;;;13.80;99.90;;;;;;5001534;28;20037;-84
2022/06/13 04:30:14;;;;;;;16.98;8.02;;;13.80;99.90;;;;;;5001392;28;20492;-86
2022/06/13 04:32:46;;;;;;;15.57;7.60;;;13.90;99.90;;;;;;5002345;28;20128;-86
2022/06/13 04:35:12;;;;;;;21.83;7.80;;;14.00;99.90;;;;;;4984650;28;20045;-86
2022/06/13 04:37:38;;;;;;;12.93;6.40;;;14.10;99.90;;;;;;5034488;28;20048;-84
2022/06/13 04:40:04;;;;;;;14.30;6.13;;;14.50;99.90;;;;;;5008226;28;20140;-86
2022/06/13 04:42:33;;;;;;;15.48;6.47;;;15.20;99.90;;;;;;4983730;28;20052;-84
2022/06/13 04:45:00;;;;;;;18.77;5.88;;;15.90;99.90;;;;;;4984563;28;20621;-83
2022/06/13 04:47:26;;;;;;;12.02;5.47;;;16.50;99.90;;;;;;4983882;28;20040;-85
2022/06/13 04:49:54;;;;;;;12.52;5.35;;;17.00;99.90;;;;;;5000460;28;20045;-85
2022/06/13 04:52:30;;;;;;;12.73;4.82;;;17.20;99.90;;;;;;4983762;28;20053;-85
2022/06/13 04:55:16;;;;;;;12.02;4.82;;;17.60;99.90;;;;;;5000192;28;20037;-84
2022/06/13 04:57:42;;;;;;;14.45;5.15;;;17.80;99.90;;;;;;5005069;28;20045;-86
2022/06/13 05:00:08;;;;;;;11.77;4.93;;;18.60;99.90;;;;;;5025533;28;20078;-85
2022/06/13 05:02:40;;;;;;;8.88;4.13;;;18.50;99.90;;;;;;5000669;28;20045;-85
2022/06/13 05:05:08;;;;;;;10.02;3.80;;;18.40;99.90;;;;;;4984944;28;20042;-85
2022/06/13 05:07:33;;;;;;;11.02;4.13;;;18.50;99.90;;;;;;4997006;28;20053;-84
2022/06/13 05:10:00;;;;;;;6.90;3.33;;;18.50;99.90;;;;;;5027921;28;20045;-86
2022/06/13 05:12:43;;;;;;;7.22;3.22;;;19.00;99.90;;;;;;4999453;28;20117;-85
2022/06/13 05:15:29;;;;;;;7.28;2.92;;;19.00;99.90;;;;;;4983831;28;20429;-85
2022/06/13 05:18:19;;;;;;;7.97;2.65;;;19.00;99.90;;;;;;5015678;28;20077;-87
2022/06/13 05:20:51;;;;;;;9.25;2.90;;;19.00;99.90;;;;;;5004276;28;20509;-85
2022/06/13 05:23:23;;;;;;;8.60;2.90;;;18.90;99.90;;;;;;4998223;28;20250;-85
2022/06/13 05:25:50;;;;;;;9.52;2.95;;;18.40;99.90;;;;;;5016004;28;20045;-83
2022/06/13 05:28:21;;;;;;;9.35;2.80;;;19.00;99.90;;;;;;4968081;28;20118;-84
2022/06/13 05:30:48;;;;;;;8.05;2.75;;;19.70;99.90;;;;;;4985571;28;20103;-84
2022/06/13 05:33:15;;;;;;;7.57;2.60;;;18.80;99.90;;;;;;4983711;28;20103;-84
2022/06/13 05:35:44;;;;;;;6.75;2.55;;;18.00;99.90;;;;;;4995518;28;20111;-85
2022/06/13 05:38:35;;;;;;;6.70;2.38;;;17.40;99.90;;;;;;4990480;28;20053;-84
2022/06/13 05:41:01;;;;;;;8.43;2.67;;;16.70;99.90;;;;;;4986119;28;20499;-85
2022/06/13 05:43:27;;;;;;;7.72;2.05;;;16.30;99.90;;;;;;4982718;28;20053;-84
2022/06/13 05:45:52;;;;;;;5.25;2.38;;;15.80;99.90;;;;;;4999639;28;20250;-84
2022/06/13 05:48:20;;;;;;;4.07;2.33;;;15.30;99.90;;;;;;5015897;28;20045;-84
2022/06/13 05:50:45;;;;;;;5.35;2.20;;;15.20;99.90;;;;;;4983334;28;20062;-86
2022/06/13 05:53:16;;;;;;;6.93;2.13;;;15.10;99.90;;;;;;4983230;28;20063;-85
2022/06/13 05:55:42;;;;;;;6.35;2.05;;;15.00;99.90;;;;;;5015960;28;20377;-85
2022/06/13 05:58:12;;;;;;;3.42;1.75;;;15.00;99.90;;;;;;4984560;28;20044;-83
2022/06/13 06:00:42;;;;;;;3.90;1.88;;;15.00;99.90;;;;;;5000506;28;20053;-84
2022/06/13 06:03:07;;;;;;;4.22;1.98;;;15.20;99.90;;;;;;5016062;28;20100;-86
2022/06/13 06:05:33;;;;;;;4.60;2.30;;;15.00;99.90;;;;;;5016180;28;20481;-88
2022/06/13 06:08:25;;;;;;;5.38;1.80;;;15.40;99.90;;;;;;5022834;28;20049;-87
2022/06/13 06:10:55;;;;;;;7.05;1.80;;;15.90;99.90;;;;;;4989692;28;20553;-87
2022/06/13 06:13:20;;;;;;;4.43;1.70;;;17.00;99.90;;;;;;4999394;28;20048;-88
2022/06/13 06:15:47;;;;;;;5.00;1.50;;;18.10;99.90;;;;;;5033521;28;20087;-90
2022/06/13 06:18:14;;;;;;;6.10;1.90;;;19.00;99.90;;;;;;5021051;28;20052;-87
2022/06/13 06:20:39;;;;;;;4.78;1.73;;;19.50;99.90;;;;;;5026868;28;20060;-86
2022/06/13 06:23:09;;;;;;;3.58;1.58;;;19.80;99.90;;;;;;5002807;28;20038;-95
2022/06/13 06:25:35;;;;;;;4.65;1.50;;;20.30;99.90;;;;;;4994128;28;20059;-86
2022/06/13 06:28:01;;;;;;;4.57;1.95;;;19.80;99.90;;;;;;4998717;28;20049;-87
2022/06/13 06:30:27;;;;;;;3.03;1.45;;;20.20;99.90;;;;;;4998697;28;20053;-86
2022/06/13 06:32:54;;;;;;;6.40;1.95;;;21.00;99.90;;;;;;4981851;28;20126;-87
2022/06/13 06:35:20;;;;;;;5.18;1.83;;;21.40;99.90;;;;;;5014530;28;20049;-86
2022/06/13 06:37:48;;;;;;;3.67;1.40;;;21.80;99.90;;;;;;4998125;28;20041;-88
2022/06/13 06:40:15;;;;;;;3.50;1.20;;;20.40;99.90;;;;;;4999418;28;20041;-88
2022/06/13 06:42:40;;;;;;;1.95;1.15;;;20.30;99.90;;;;;;4998078;28;20106;-87
2022/06/13 06:45:07;;;;;;;3.75;1.30;;;19.50;99.90;;;;;;4982967;28;20053;-86
2022/06/13 06:47:32;;;;;;;4.13;1.23;;;19.10;99.90;;;;;;5017062;28;20052;-85
2022/06/13 06:49:58;;;;;;;3.65;1.23;;;19.20;99.90;;;;;;5032624;28;20037;-89
2022/06/13 06:52:24;;;;;;;6.03;1.23;;;18.60;99.90;;;;;;4998209;28;20081;-87
2022/06/13 07:00:19;;;;;;;5.75;1.40;;;17.80;99.90;;;;;;5017250;28;19971;-88
2022/06/13 07:02:45;;;;;;;6.75;1.25;;;17.60;99.90;;;;;;4999967;28;20037;-87
2022/06/13 07:05:14;;;;;;;2.75;1.10;;;17.50;99.90;;;;;;4998562;28;20369;-93
2022/06/13 07:07:39;;;;;;;4.80;1.73;;;17.30;99.90;;;;;;4982452;28;20111;-87
2022/06/13 07:10:06;;;;;;;5.18;1.80;;;17.20;99.90;;;;;;4998770;28;20470;-88
2022/06/13 07:12:31;;;;;;;7.60;1.52;;;16.80;99.90;;;;;;4982456;28;20037;-87
2022/06/13 07:14:57;;;;;;;5.88;1.70;;;16.80;99.90;;;;;;5012444;28;20049;-88
2022/06/13 07:17:23;;;;;;;5.15;1.60;;;17.10;99.90;;;;;;5013352;28;20065;-90
2022/06/13 07:19:49;;;;;;;3.75;1.77;;;17.10;99.90;;;;;;4997225;28;20045;-88
2022/06/13 07:22:17;;;;;;;5.93;1.83;;;17.10;99.90;;;;;;5013337;28;20488;-85
2022/06/13 07:24:43;;;;;;;4.13;1.73;;;17.20;99.90;;;;;;5011857;28;20053;-88
2022/06/13 07:27:09;;;;;;;5.43;1.85;;;18.70;99.90;;;;;;4981804;28;20076;-88
2022/06/13 07:29:35;;;;;;;4.32;1.50;;;19.20;99.90;;;;;;4996605;28;20049;-86
2022/06/13 07:32:15;;;;;;;5.40;1.50;;;19.70;99.90;;;;;;5010857;28;20036;-86
2022/06/13 07:34:42;;;;;;;11.10;1.70;;;20.40;99.90;;;;;;4982299;28;20093;-86
2022/06/13 07:37:09;;;;;;;4.07;1.45;;;20.50;99.90;;;;;;5016787;28;20078;-92
2022/06/13 07:39:35;;;;;;;4.68;1.50;;;21.20;99.90;;;;;;5023253;28;20045;-91
2022/06/13 07:42:01;;;;;;;3.15;1.38;;;21.70;99.90;;;;;;5050405;28;20103;-91
2022/06/13 07:44:34;;;;;;;4.25;1.20;;;21.80;99.90;;;;;;5036166;28;20046;-89
2022/06/13 07:47:00;;;;;;;5.35;1.50;;;22.00;99.90;;;;;;5006947;28;20045;-91
2022/06/13 07:49:26;;;;;;;3.05;1.23;;;21.50;99.90;;;;;;4985890;28;20064;-87
2022/06/13 07:51:52;;;;;;;4.00;1.30;;;21.70;99.90;;;;;;5002303;28;20136;-92
2022/06/13 07:54:19;;;;;;;4.18;1.65;;;21.40;99.90;;;;;;4969748;28;20045;-93
2022/06/13 07:56:45;;;;;;;3.50;1.30;;;21.20;99.90;;;;;;5005979;28;20041;-90
2022/06/13 07:59:24;;;;;;;5.60;1.40;;;21.40;99.90;;;;;;5006534;28;20088;-92
2022/06/13 08:01:49;;;;;;;4.60;1.20;;;21.60;99.90;;;;;;4997089;28;20034;-92
2022/06/13 08:04:15;;;;;;;4.40;1.40;;;21.20;99.90;;;;;;4995429;28;20041;-88
2022/06/13 08:06:43;;;;;;;3.95;1.60;;;20.30;99.90;;;;;;5019100;28;20033;-89
2022/06/13 08:09:10;;;;;;;5.05;1.67;;;19.80;99.90;;;;;;5023160;28;20045;-88
2022/06/13 08:11:37;;;;;;;2.70;1.30;;;20.00;99.90;;;;;;5000340;28;20374;-89
2022/06/13 08:14:06;;;;;;;5.38;1.42;;;20.00;99.90;;;;;;4968811;28;20041;-87
2022/06/13 08:16:34;;;;;;;3.83;1.20;;;20.60;99.90;;;;;;5001554;28;20106;-87
2022/06/13 08:19:01;;;;;;;5.78;1.50;;;20.10;99.90;;;;;;4984937;28;20429;-86
2022/06/13 08:21:27;;;;;;;3.22;1.13;;;20.20;99.90;;;;;;5016845;28;20108;-87
2022/06/13 08:23:52;;;;;;;3.70;1.55;;;20.00;99.90;;;;;;4986093;28;20056;-86
2022/06/13 08:26:18;;;;;;;3.78;1.30;;;19.60;99.90;;;;;;5017502;28;20049;-86
2022/06/13 08:28:44;;;;;;;5.05;1.48;;;18.80;99.90;;;;;;5000008;28;20117;-88
2022/06/13 08:31:11;;;;;;;5.72;1.80;;;17.80;99.90;;;;;;5000727;28;20037;-85
2022/06/13 08:33:37;;;;;;;6.47;1.30;;;17.30;99.90;;;;;;5000883;28;20085;-89
2022/06/13 08:36:07;;;;;;;4.97;1.40;;;17.20;99.90;;;;;;5001008;28;20034;-91
2022/06/13 08:38:32;;;;;;;7.82;1.88;;;17.10;99.90;;;;;;4968734;28;20049;-91
2022/06/13 08:41:07;;;;;;;6.07;1.85;;;17.20;99.90;;;;;;4992947;28;20059;-90
2022/06/13 08:43:33;;;;;;;6.50;1.90;;;17.50;99.90;;;;;;5013585;28;20045;-89
2022/06/13 08:46:22;;;;;;;6.50;1.63;;;17.80;99.90;;;;;;5015702;28;20100;-90
2022/06/13 08:48:48;;;;;;;4.22;1.20;;;18.80;99.90;;;;;;5014101;28;20041;-87
2022/06/13 08:51:16;;;;;;;4.25;1.38;;;19.60;99.90;;;;;;5042790;28;20049;-90
2022/06/13 08:54:01;;;;;;;4.95;1.40;;;20.30;99.90;;;;;;5000090;28;20494;-87
2022/06/13 08:56:34;;;;;;;4.05;1.23;;;20.30;99.90;;;;;;5037827;28;20037;-93
2022/06/13 08:59:22;;;;;;;3.30;1.13;;;19.80;99.90;;;;;;5005793;28;20053;-90
2022/06/13 09:01:58;;;;;;;4.90;1.40;;;19.80;99.90;;;;;;5043326;28;20033;-89
2022/06/13 09:04:29;;;;;;;3.63;1.42;;;19.30;99.90;;;;;;5023450;28;20029;-89
2022/06/13 09:07:20;;;;;;;3.72;1.23;;;18.80;99.90;;;;;;4996349;28;20041;-85
2022/06/13 09:10:06;;;;;;;5.30;1.40;;;19.50;99.90;;;;;;5011101;28;20079;-86
2022/06/13 09:12:52;;;;;;;3.10;1.33;;;19.60;99.90;;;;;;4993827;28;20107;-88
2022/06/13 09:15:26;;;;;;;3.38;1.13;;;20.50;99.90;;;;;;5011314;28;20041;-86
2022/06/13 09:18:33;;;;;;;3.97;1.20;;;20.40;99.90;;;;;;5012059;28;20041;-87
2022/06/13 09:21:08;;;;;;;3.00;1.08;;;21.30;99.90;;;;;;4991182;28;20040;-90
2022/06/13 09:24:01;;;;;;;3.00;1.20;;;21.10;99.90;;;;;;5006576;28;20100;-92
2022/06/13 09:26:36;;;;;;;5.40;1.10;;;21.30;99.90;;;;;;5037003;28;20041;-90
2022/06/13 09:29:23;;;;;;;3.63;1.10;;;22.00;99.90;;;;;;5018826;28;20555;-89
2022/06/13 09:31:53;;;;;;;3.70;1.67;;;21.60;99.90;;;;;;4996380;28;20047;-89
2022/06/13 09:34:41;;;;;;;4.35;1.05;;;20.60;99.90;;;;;;5014304;28;20052;-90
2022/06/13 09:37:17;;;;;;;2.47;1.13;;;19.10;99.90;;;;;;5001142;28;20107;-89
2022/06/13 09:39:42;;;;;;;5.18;1.20;;;18.70;99.90;;;;;;5003803;28;20121;-89
2022/06/13 09:42:27;;;;;;;1.77;0.80;;;18.80;99.90;;;;;;4999417;28;20125;-88
2022/06/13 09:45:15;;;;;;;3.40;1.27;;;19.90;99.90;;;;;;5013953;28;20049;-90
2022/06/13 09:47:53;;;;;;;5.80;1.30;;;20.20;99.90;;;;;;5016423;28;20045;-87
2022/06/13 09:51:08;;;;;;;3.72;1.00;;;18.10;99.90;;;;;;5016245;28;20039;-87
2022/06/13 09:53:39;;;;;;;6.25;1.23;;;16.60;99.90;;;;;;5002823;28;20105;-86
2022/06/13 09:56:13;;;;;;;3.83;1.15;;;16.30;99.90;;;;;;4997754;28;20048;-86
2022/06/13 09:58:45;;;;;;;;;;;16.50;99.90;;;;;;4999705;28;20199;-87
2022/06/13 10:01:34;;;;;;;5.60;2.08;;;16.90;99.90;;;;;;4996233;28;19924;-86
2022/06/13 10:04:17;;;;;;;6.38;1.40;;;17.80;99.90;;;;;;4999269;28;20086;-86
2022/06/13 10:06:46;;;;;;;8.50;1.58;;;19.10;99.90;;;;;;5034045;28;20080;-88
2022/06/13 10:09:30;;;;;;;7.07;1.23;;;19.40;99.90;;;;;;5001424;28;20041;-87
2022/06/13 10:12:06;;;;;;;4.90;1.20;;;19.80;99.90;;;;;;4999982;28;20132;-87
2022/06/13 10:15:05;;;;;;;3.97;1.25;;;20.40;99.90;;;;;;5008180;28;20103;-88
2022/06/13 10:17:56;;;;;;;5.78;1.40;;;19.60;99.90;;;;;;5004918;28;20041;-89
2022/06/13 10:20:42;;;;;;;5.05;1.48;;;19.60;99.90;;;;;;5012816;28;20037;-90
2022/06/13 10:23:29;;;;;;;6.80;1.70;;;19.00;99.90;;;;;;5019771;28;20049;-91
2022/06/13 10:26:24;;;;;;;6.93;1.75;;;18.50;99.90;;;;;;5017194;28;20037;-88
2022/06/13 10:29:12;;;;;;;8.40;1.60;;;18.10;99.90;;;;;;5014992;28;20053;-87
2022/06/13 10:32:03;;;;;;;7.82;1.50;;;17.90;99.90;;;;;;5003565;28;20096;-88
2022/06/13 10:34:54;;;;;;;5.78;1.52;;;18.20;99.90;;;;;;4997099;28;20041;-87
2022/06/13 10:37:24;;;;;;;7.28;1.85;;;19.00;99.90;;;;;;5014821;28;20477;-88
2022/06/13 10:39:52;;;;;;;5.07;1.42;;;19.80;99.90;;;;;;5014285;28;20040;-88
2022/06/13 10:42:20;;;;;;;5.22;1.85;;;19.80;99.90;;;;;;5001536;28;20053;-88
2022/06/13 10:44:46;;;;;;;6.15;1.70;;;20.00;99.90;;;;;;5001566;28;20045;-86
2022/06/13 10:47:34;;;;;;;4.28;1.40;;;20.50;99.90;;;;;;5001439;28;20175;-86
2022/06/13 10:50:03;;;;;;;5.93;2.03;;;20.60;99.90;;;;;;4999066;28;20373;-90
2022/06/13 10:52:33;;;;;;;4.95;1.40;;;21.20;99.90;;;;;;4995208;28;20049;-89
2022/06/13 10:55:08;;;;;;;4.28;1.38;;;20.00;99.90;;;;;;4989625;28;20045;-89
2022/06/13 10:57:41;;;;;;;3.90;1.50;;;19.00;99.90;;;;;;4982843;28;20139;-89
2022/06/13 11:00:18;;;;;;;4.60;1.42;;;19.60;99.90;;;;;;4975390;28;20084;-89
2022/06/13 11:02:43;;;;;;;8.30;1.70;;;20.00;99.90;;;;;;5002067;28;20045;-88
2022/06/13 11:05:21;;;;;;;6.03;1.70;;;20.00;99.90;;;;;;4998182;28;20042;-89
2022/06/13 11:07:49;;;;;;;6.32;1.50;;;20.00;99.90;;;;;;4981786;28;20049;-88
2022/06/13 11:10:39;;;;;;;5.60;1.60;;;20.10;99.90;;;;;;4996113;28;20410;-88
2022/06/13 11:13:12;;;;;;;5.88;1.85;;;19.50;99.90;;;;;;5015302;28;20098;-90
2022/06/13 11:24:41;;;;;;;7.88;1.80;;;19.30;99.90;;;;;;5006965;28;20042;-87
2022/06/13 11:30:23;;;;;;;5.03;1.33;;;19.20;99.90;;;;;;5001664;28;20049;-90
2022/06/13 11:32:59;;;;;;;5.55;1.80;;;18.70;99.90;;;;;;4992980;28;20501;-90
2022/06/13 11:35:27;;;;;;;9.27;1.75;;;18.50;99.90;;;;;;4987087;28;20041;-89
2022/06/13 11:37:53;;;;;;;7.13;1.95;;;18.60;99.90;;;;;;5007800;28;20033;-95
2022/06/13 11:40:25;;;;;;;7.03;1.80;;;18.60;99.90;;;;;;5022777;28;20090;-91
2022/06/13 11:42:57;;;;;;;6.28;1.65;;;18.30;99.90;;;;;;5005412;28;20399;-90
2022/06/13 11:45:23;;;;;;;8.07;1.75;;;18.20;99.90;;;;;;5006742;28;20044;-88
2022/06/13 11:47:52;;;;;;;7.63;1.92;;;18.70;99.90;;;;;;5015397;28;20045;-89
2022/06/13 11:50:28;;;;;;;6.45;1.50;;;19.10;99.90;;;;;;4985354;28;20100;-90
2022/06/13 11:55:54;;;;;;;6.28;2.13;;;19.10;99.90;;;;;;4991178;28;20052;-90
2022/06/13 11:58:24;;;;;;;7.32;1.88;;;19.50;99.90;;;;;;4980143;28;20049;-90
2022/06/13 12:01:00;;;;;;;9.57;2.20;;;19.70;99.90;;;;;;4999717;28;20047;-89
2022/06/13 12:03:27;;;;;;;8.55;2.53;;;19.70;99.90;;;;;;4983037;28;20112;-87
2022/06/13 12:06:07;;;;;;;8.50;1.60;;;19.40;99.90;;;;;;5008775;28;20047;-89
2022/06/13 12:08:33;;;;;;;5.18;1.65;;;20.00;99.90;;;;;;4995075;28;20478;-91
2022/06/13 12:11:05;;;;;;;6.95;1.80;;;19.60;99.90;;;;;;4988687;28;20052;-91
2022/06/13 12:13:37;;;;;;;7.57;2.20;;;19.20;99.90;;;;;;5000887;28;20156;-87
2022/06/13 12:16:11;;;;;;;9.05;2.10;;;19.00;99.90;;;;;;5001041;28;20089;-85
2022/06/13 12:19:00;;;;;;;10.38;2.47;;;18.30;99.90;;;;;;5000694;28;20119;-85
2022/06/13 12:22:04;;;;;;;8.73;2.20;;;17.70;99.90;;;;;;5002149;28;20056;-85
2022/06/13 12:24:49;;;;;;;6.03;1.90;;;17.50;99.90;;;;;;4976042;28;20033;-84
2022/06/13 12:27:18;;;;;;;9.48;2.20;;;17.40;99.90;;;;;;5005291;28;20053;-87
2022/06/13 12:30:11;;;;;;;7.53;2.00;;;17.20;99.90;;;;;;5025748;28;20048;-89
2022/06/13 12:32:45;;;;;;;10.45;2.67;;;17.70;99.90;;;;;;5025231;28;20064;-88
2022/06/13 12:35:29;;;;;;;8.23;1.88;;;17.80;99.90;;;;;;4990538;28;20529;-88
2022/06/13 12:38:13;;;;;;;;;;;17.80;99.90;;;;;;5018645;28;20038;-86
2022/06/13 12:40:45;;;;;;;7.15;1.70;;;17.80;99.90;;;;;;5032625;28;19924;-85
2022/06/13 12:43:37;;;;;;;7.32;1.90;;;17.90;99.90;;;;;;5000866;28;20128;-83
2022/06/13 12:46:25;;;;;;;10.82;2.90;;;17.80;99.90;;;;;;5033846;28;20056;-87
2022/06/13 12:49:10;;;;;;;8.63;1.85;;;18.60;99.90;;;;;;5014511;28;20041;-86
2022/06/13 12:51:42;;;;;;;6.90;1.60;;;19.10;99.90;;;;;;4991810;28;20048;-88
2022/06/13 12:54:29;;;;;;;6.35;1.45;;;19.60;99.90;;;;;;4983011;28;20152;-90
2022/06/13 12:57:27;;;;;;;10.25;2.17;;;19.50;99.90;;;;;;4995316;28;20044;-90
2022/06/13 13:00:02;;;;;;;6.30;1.55;;;19.10;99.90;;;;;;5041436;28;20048;-93
2022/06/13 13:02:44;;;;;;;8.55;1.70;;;18.80;99.90;;;;;;5057450;28;20068;-88
2022/06/13 13:05:24;;;;;;;5.72;1.50;;;18.80;99.90;;;;;;5038779;28;20043;-92
2022/06/13 13:08:04;;;;;;;4.68;1.50;;;18.40;99.90;;;;;;5004837;28;20083;-93
2022/06/13 13:10:58;;;;;;;5.20;1.30;;;18.20;99.90;;;;;;5017991;28;20481;-94
2022/06/13 13:13:33;;;;;;;5.00;1.38;;;18.40;99.90;;;;;;5001430;28;20136;-91
2022/06/13 13:16:16;;;;;;;12.48;2.10;;;18.30;99.90;;;;;;4982179;28;20120;-92
2022/06/13 13:19:04;;;;;;;9.10;1.60;;;18.30;99.90;;;;;;4968388;28;20144;-93
2022/06/13 13:21:43;;;;;;;6.88;1.70;;;18.80;99.90;;;;;;5003743;28;20045;-91
2022/06/13 13:24:28;;;;;;;5.75;1.60;;;18.20;99.90;;;;;;5004637;28;20037;-92
2022/06/13 13:27:26;;;;;;;6.82;1.88;;;16.70;99.90;;;;;;5014185;28;20105;-90
2022/06/13 13:30:00;;;;;;;6.95;1.73;;;17.80;99.90;;;;;;4994605;28;20425;-90
2022/06/13 13:33:00;;;;;;;4.28;1.30;;;17.70;99.90;;;;;;4995514;28;20038;-90
2022/06/13 13:35:54;;;;;;;8.52;1.65;;;17.50;99.90;;;;;;5010417;28;20057;-90
2022/06/13 13:38:43;;;;;;;;;;;;;;;;;;;;;
2022/06/13 13:41:37;;;;;;;7.75;1.75;;;17.50;99.90;;;;;;4984684;28;20048;-90
2022/06/13 13:44:16;;;;;;;8.43;1.42;;;17.50;99.90;;;;;;4988643;28;20041;-87
2022/06/13 13:46:51;;;;;;;7.40;1.98;;;17.30;99.90;;;;;;5010080;28;20045;-87
2022/06/13 13:49:33;;;;;;;8.05;1.70;;;17.20;99.90;;;;;;5018417;28;20175;-91
2022/06/13 13:52:08;;;;;;;5.95;1.35;;;17.30;99.90;;;;;;5000100;28;20124;-89